Time;durP1;ratioP1;P1;durP2;ratioP2;P2;SDS_P1;SDS_P2;PMS_P1;PMS_P2;Temp;Humidity;BMP_temperature;BMP_pressure;BME280_temperature;BME280_humidity;BME280_pressure;Samples;Min_cycle;Max_cycle;Signal;HPM_P1;HPM_P2
2021/05/03 00:02:28;;;;;;;2.95;2.75;;;;;;;9.10;49.16;100622.69;10254280;28;20065;-63
2021/05/03 00:07:30;;;;;;;3.17;2.75;;;;;;;9.03;47.89;100632.00;10253026;28;20054;-62
2021/05/03 00:12:30;;;;;;;4.22;3.00;;;;;;;9.05;48.24;100630.09;10248207;28;20051;-59
2021/05/03 00:17:31;;;;;;;4.95;3.17;;;;;;;8.95;49.13;100629.03;10243434;28;20065;-62
2021/05/03 00:22:33;;;;;;;3.40;3.10;;;;;;;8.99;48.23;100625.19;10245540;28;20169;-62
2021/05/03 00:27:34;;;;;;;3.95;3.00;;;;;;;8.94;48.36;100622.03;10258344;28;20525;-62
2021/05/03 00:32:34;;;;;;;3.35;3.05;;;;;;;8.90;48.59;100631.13;10248799;28;20050;-62
2021/05/03 00:37:35;;;;;;;5.07;3.45;;;;;;;8.90;48.99;100631.13;10247798;28;20054;-62
2021/05/03 00:42:37;;;;;;;3.28;2.85;;;;;;;8.93;49.34;100625.63;10248749;28;20137;-65
2021/05/03 00:47:38;;;;;;;4.03;3.60;;;;;;;8.87;49.26;100626.03;10252928;28;20797;-61
2021/05/03 00:52:39;;;;;;;3.28;2.97;;;;;;;8.84;49.30;100622.66;10258625;28;20504;-62
2021/05/03 00:57:40;;;;;;;7.88;3.47;;;;;;;8.82;49.37;100634.31;10259294;28;20047;-64
2021/05/03 01:02:41;;;;;;;3.75;3.20;;;;;;;8.79;49.90;100630.06;10253619;28;20112;-60
2021/05/03 01:07:43;;;;;;;4.78;3.42;;;;;;;8.81;51.35;100633.47;10253054;28;20051;-62
2021/05/03 01:12:44;;;;;;;6.25;4.03;;;;;;;8.79;49.66;100635.38;10261992;28;20134;-61
2021/05/03 01:17:44;;;;;;;4.45;2.90;;;;;;;8.75;50.04;100639.19;10258244;28;20070;-62
2021/05/03 01:22:45;;;;;;;4.43;3.50;;;;;;;8.66;49.78;100630.03;10253463;28;20055;-60
2021/05/03 01:27:46;;;;;;;3.55;3.25;;;;;;;8.74;49.65;100642.78;10255039;28;20051;-63
2021/05/03 01:32:47;;;;;;;3.60;3.30;;;;;;;8.72;50.15;100639.41;10254265;28;20130;-63
2021/05/03 01:37:53;;;;;;;3.95;3.65;;;;;;;8.66;49.75;100642.44;10261454;28;20054;-62
2021/05/03 01:42:55;;;;;;;5.05;3.63;;;;;;;8.66;50.39;100639.78;10250449;28;20117;-63
2021/05/03 01:47:56;;;;;;;3.90;3.60;;;;;;;8.62;50.09;100640.97;10255738;28;20108;-63
2021/05/03 01:52:57;;;;;;;3.75;3.42;;;;;;;8.54;50.70;100624.69;10291392;23;20185;-56
2021/05/03 01:57:58;;;;;;;3.95;3.63;;;;;;;8.63;50.19;100640.00;10306620;28;20049;-55
2021/05/03 02:02:59;;;;;;;3.67;3.38;;;;;;;8.58;50.84;100642.09;10308390;28;20671;-56
2021/05/03 02:08:05;;;;;;;4.53;4.00;;;;;;;8.19;51.30;100609.25;10312231;28;20054;-57
2021/05/03 02:13:06;;;;;;;3.97;3.20;;;;;;;8.40;51.48;100654.75;10307912;28;20054;-55
2021/05/03 02:18:07;;;;;;;3.92;3.63;;;;;;;8.31;51.44;100656.19;10304932;28;20144;-56
2021/05/03 02:23:08;;;;;;;7.78;4.30;;;;;;;8.22;51.50;100654.13;10300611;28;20165;-56
2021/05/03 02:28:10;;;;;;;4.65;4.25;;;;;;;8.21;52.25;100670.97;10298457;28;20099;-55
2021/05/03 02:33:12;;;;;;;4.78;4.30;;;;;;;8.18;51.88;100665.88;10295804;28;20046;-58
2021/05/03 02:38:13;;;;;;;4.93;4.53;;;;;;;8.21;51.83;100666.56;10292959;28;20065;-57
2021/05/03 02:43:14;;;;;;;5.10;4.15;;;;;;;8.08;52.25;100665.63;10301230;28;20109;-56
2021/05/03 02:48:15;;;;;;;4.93;4.40;;;;;;;7.93;52.70;100662.16;10300218;28;20064;-56
2021/05/03 02:53:16;;;;;;;5.50;5.10;;;;;;;7.95;53.03;100665.53;10296467;28;20141;-56
2021/05/03 02:58:17;;;;;;;9.38;4.50;;;;;;;7.97;53.44;100669.81;10300873;28;20054;-56
2021/05/03 03:03:18;;;;;;;6.40;5.30;;;;;;;7.95;53.47;100668.19;10300810;28;20088;-56
2021/05/03 03:08:19;;;;;;;6.70;4.63;;;;;;;8.04;53.63;100691.47;10303931;28;20167;-57
2021/05/03 03:13:21;;;;;;;6.65;4.85;;;;;;;8.08;53.40;100687.69;10313444;28;20053;-57
2021/05/03 03:18:22;;;;;;;5.53;4.95;;;;;;;7.96;53.43;100683.16;10302906;28;20205;-57
2021/05/03 03:23:23;;;;;;;5.30;4.80;;;;;;;7.77;54.10;100694.88;10298203;28;20160;-57
2021/05/03 03:28:24;;;;;;;5.70;5.15;;;;;;;7.56;54.52;100699.69;10302013;28;20084;-59
2021/05/03 03:33:25;;;;;;;5.72;4.95;;;;;;;7.55;54.84;100689.19;10303677;28;20147;-57
2021/05/03 03:38:26;;;;;;;5.38;4.97;;;;;;;7.52;54.80;100711.44;10299407;28;20054;-55
2021/05/03 03:43:28;;;;;;;5.60;5.20;;;;;;;7.32;55.69;100715.28;10299876;28;20557;-55
2021/05/03 03:48:29;;;;;;;7.07;5.65;;;;;;;7.25;55.83;100719.22;10295843;28;20052;-56
2021/05/03 03:53:30;;;;;;;5.82;5.07;;;;;;;7.43;56.41;100727.88;10299932;28;20054;-57
2021/05/03 03:58:30;;;;;;;6.68;6.05;;;;;;;7.40;55.79;100726.28;10299360;28;20240;-57
2021/05/03 04:03:31;;;;;;;7.25;6.53;;;;;;;7.22;56.29;100725.59;10295602;28;20060;-55
2021/05/03 04:08:51;;;;;;;6.10;5.50;;;;;;;7.13;56.60;100718.19;10301595;28;20513;-56
2021/05/03 04:24:49;;;;;;;5.82;5.32;;;;;;;7.34;56.98;100718.72;10293259;28;20072;-55
2021/05/03 04:29:50;;;;;;;6.18;5.60;;;;;;;7.30;56.73;100737.53;10307620;28;20077;-56
2021/05/03 04:34:51;;;;;;;6.70;5.75;;;;;;;7.28;57.95;100732.31;10307592;28;20553;-56
2021/05/03 04:39:52;;;;;;;6.53;6.03;;;;;;;7.25;57.65;100728.03;10309543;28;20057;-55
2021/05/03 04:44:53;;;;;;;8.15;6.30;;;;;;;7.43;57.39;100727.88;10313104;28;20058;-56
2021/05/03 04:49:54;;;;;;;8.18;6.50;;;;;;;7.29;57.92;100734.00;10308945;28;20070;-56
2021/05/03 04:54:55;;;;;;;7.65;6.20;;;;;;;7.41;57.38;100735.91;10303133;28;20065;-57
2021/05/03 04:59:56;;;;;;;7.47;6.78;;;;;;;7.36;57.51;100748.59;10307595;28;20492;-57
2021/05/03 05:04:59;;;;;;;8.43;6.05;;;;;;;7.31;56.97;100744.50;10306540;28;20054;-56
2021/05/03 05:10:00;;;;;;;6.80;6.18;;;;;;;7.32;57.41;100741.75;10309996;28;20506;-55
2021/05/03 05:15:02;;;;;;;7.72;6.68;;;;;;;7.38;58.05;100757.28;10307528;28;20565;-57
2021/05/03 05:20:05;;;;;;;8.35;7.47;;;;;;;7.45;57.24;100752.50;10303687;28;20507;-58
2021/05/03 05:25:07;;;;;;;7.75;6.97;;;;;;;7.58;56.96;100758.78;10308205;28;20062;-55
2021/05/03 05:30:09;;;;;;;7.07;6.50;;;;;;;7.66;56.10;100760.94;10308886;28;20115;-56
2021/05/03 05:35:10;;;;;;;6.90;6.25;;;;;;;7.66;57.48;100768.91;10310655;28;20089;-56
2021/05/03 05:40:11;;;;;;;7.75;6.85;;;;;;;7.70;56.21;100738.63;10305784;28;20050;-56
2021/05/03 05:45:12;;;;;;;7.78;6.25;;;;;;;7.91;57.30;100770.94;10306515;28;20089;-57
2021/05/03 05:50:13;;;;;;;10.10;8.20;;;;;;;8.10;56.63;100770.63;10305343;28;20050;-60
2021/05/03 05:55:14;;;;;;;7.95;6.80;;;;;;;8.13;55.18;100751.88;10304189;28;20057;-56
2021/05/03 06:00:16;;;;;;;7.20;6.50;;;;;;;8.44;56.44;100775.69;10304234;28;21643;-50
2021/05/03 06:05:18;;;;;;;8.52;6.50;;;;;;;8.61;55.46;100777.25;10305721;28;20128;-51
2021/05/03 06:10:19;;;;;;;7.25;6.55;;;;;;;8.74;53.78;100761.41;10298349;28;20375;-56
2021/05/03 06:15:20;;;;;;;7.22;6.53;;;;;;;8.67;53.41;100776.84;10299826;28;20475;-56
2021/05/03 06:20:21;;;;;;;7.28;6.53;;;;;;;8.76;52.23;100756.81;10298502;28;20050;-56
2021/05/03 06:25:22;;;;;;;7.85;7.15;;;;;;;8.93;53.04;100784.94;10300001;28;20506;-55
2021/05/03 06:30:24;;;;;;;7.00;6.10;;;;;;;9.20;52.91;100776.94;10296268;28;20060;-55
2021/05/03 06:35:26;;;;;;;7.35;6.68;;;;;;;9.31;52.59;100781.56;10304948;28;20487;-55
2021/05/03 06:40:27;;;;;;;7.63;6.93;;;;;;;9.32;51.29;100781.47;10303521;28;20069;-55
2021/05/03 06:45:32;;;;;;;7.88;7.07;;;;;;;9.16;51.01;100780.78;10297808;28;20088;-55
2021/05/03 06:50:34;;;;;;;10.80;6.68;;;;;;;9.33;50.88;100782.31;10302748;28;20046;-55
2021/05/03 06:55:35;;;;;;;8.60;7.78;;;;;;;9.50;50.53;100778.50;10303910;28;20046;-57
2021/05/03 07:00:40;;;;;;;10.45;9.20;;;;;;;9.63;49.59;100789.16;10296368;28;20486;-56
2021/05/03 07:05:41;;;;;;;;;;;;;;;9.71;49.59;100789.47;10300587;28;20046;-56
2021/05/03 07:10:44;;;;;;;7.78;6.88;;;;;;;9.84;49.17;100787.69;10294581;28;19925;-56
2021/05/03 07:15:46;;;;;;;7.72;6.97;;;;;;;10.28;48.69;100774.88;10303380;28;20396;-56
2021/05/03 07:20:46;;;;;;;6.70;6.10;;;;;;;10.49;47.95;100791.16;10296476;28;20105;-56
2021/05/03 07:25:47;;;;;;;7.72;7.03;;;;;;;10.31;47.37;100772.00;10303375;28;20146;-57
2021/05/03 07:30:48;;;;;;;7.40;6.70;;;;;;;10.39;47.38;100760.88;10304435;28;20052;-56
2021/05/03 07:35:49;;;;;;;9.98;5.90;;;;;;;10.66;46.50;100758.03;10296376;28;20136;-56
2021/05/03 07:40:50;;;;;;;8.70;5.20;;;;;;;11.00;44.31;100768.00;10300064;28;20558;-62
2021/05/03 07:45:51;;;;;;;6.15;5.55;;;;;;;10.99;44.93;100768.97;10301505;28;20078;-56
2021/05/03 07:50:52;;;;;;;6.30;5.03;;;;;;;11.09;43.89;100759.31;10296865;28;20451;-56
2021/05/03 07:55:54;;;;;;;5.93;4.45;;;;;;;11.41;43.80;100772.03;10297212;28;20056;-57
2021/05/03 08:00:54;;;;;;;5.68;5.07;;;;;;;11.53;42.79;100763.13;10301081;28;20404;-57
2021/05/03 08:05:55;;;;;;;5.57;4.95;;;;;;;11.77;42.84;100764.84;10299397;28;20046;-55
2021/05/03 08:10:57;;;;;;;6.82;4.50;;;;;;;12.00;41.77;100777.28;10299206;28;20050;-56
2021/05/03 08:16:01;;;;;;;7.72;4.95;;;;;;;11.89;41.75;100757.72;10299599;28;20442;-56
2021/05/03 08:21:02;;;;;;;;;;;;;;;12.09;40.64;100758.88;10314564;28;20096;-56
2021/05/03 08:26:04;;;;;;;5.78;5.03;;;;;;;12.23;40.23;100765.78;10298755;28;20039;-56
2021/05/03 08:31:05;;;;;;;4.85;4.35;;;;;;;12.28;40.84;100753.78;10298951;28;20062;-56
2021/05/03 08:36:07;;;;;;;5.47;4.70;;;;;;;12.28;39.92;100766.25;10299574;28;20081;-56
2021/05/03 08:41:08;;;;;;;4.20;3.72;;;;;;;12.41;40.71;100760.78;10295352;28;20066;-58
2021/05/03 08:46:14;;;;;;;6.15;3.97;;;;;;;12.41;40.26;100764.28;10295125;28;20137;-55
2021/05/03 08:51:30;;;;;;;4.65;3.53;;;;;;;12.49;39.24;100747.66;10298923;28;20129;-56
2021/05/03 08:56:32;;;;;;;5.15;3.75;;;;;;;12.96;39.07;100753.63;10301741;28;20202;-60
2021/05/03 09:01:35;;;;;;;4.05;3.40;;;;;;;13.09;37.26;100748.97;10295564;28;20132;-55
2021/05/03 09:06:36;;;;;;;4.47;3.83;;;;;;;13.32;37.62;100737.31;10300200;28;20598;-55
2021/05/03 09:11:37;;;;;;;2.90;2.47;;;;;;;13.37;34.05;100743.97;10297906;28;20061;-55
2021/05/03 09:16:51;;;;;;;6.05;3.88;;;;;;;13.23;35.97;100736.28;10306223;28;20054;-56
2021/05/03 09:21:54;;;;;;;8.07;6.07;;;;;;;13.52;35.54;100738.31;10308348;28;20065;-57
2021/05/03 09:27:05;;;;;;;3.22;2.92;;;;;;;13.79;32.79;100725.25;10304532;28;20210;-56
2021/05/03 09:32:10;;;;;;;4.25;2.97;;;;;;;13.86;33.12;100714.88;10304049;28;20061;-58
2021/05/03 09:37:22;;;;;;;3.58;2.72;;;;;;;14.01;32.38;100717.19;10305697;28;20458;-59
2021/05/03 09:42:24;;;;;;;3.15;2.38;;;;;;;13.97;32.78;100700.53;10298235;28;20112;-57
2021/05/03 09:47:25;;;;;;;4.45;3.03;;;;;;;14.63;32.14;100704.56;10304214;28;20113;-57
2021/05/03 09:52:26;;;;;;;3.28;2.55;;;;;;;14.71;31.66;100699.34;10300021;28;20490;-58
2021/05/03 09:57:27;;;;;;;3.95;3.65;;;;;;;14.57;31.24;100686.34;10301449;28;21829;-57
2021/05/03 10:02:31;;;;;;;4.07;3.50;;;;;;;15.08;30.78;100682.56;10305195;28;20359;-57
2021/05/03 10:07:35;;;;;;;;;;;;;;;15.03;31.18;100680.31;10302266;28;20084;-58
2021/05/03 10:12:36;;;;;;;5.30;3.58;;;;;;;15.22;31.00;100683.13;10300285;28;19930;-55
2021/05/03 10:17:40;;;;;;;2.92;2.72;;;;;;;15.39;30.22;100660.94;10295130;28;22585;-56
2021/05/03 10:22:43;;;;;;;4.18;2.47;;;;;;;17.07;27.38;100673.28;10298055;28;20050;-56
2021/05/03 10:27:48;;;;;;;6.35;3.20;;;;;;;18.09;26.11;100649.34;10298917;28;20131;-55
2021/05/03 10:33:11;;;;;;;2.97;2.78;;;;;;;19.59;23.62;100650.97;10304618;28;20519;-56
2021/05/03 10:38:32;;;;;;;3.50;2.50;;;;;;;18.86;23.63;100641.13;10304105;28;20510;-59
2021/05/03 10:43:41;;;;;;;5.00;3.50;;;;;;;18.44;23.78;100633.97;10300488;28;20131;-56
2021/05/03 10:48:59;;;;;;;4.63;3.20;;;;;;;18.78;25.29;100643.78;10305560;28;20145;-61
2021/05/03 10:54:24;;;;;;;4.70;3.58;;;;;;;19.18;23.55;100634.84;10306207;28;20124;-57
2021/05/03 10:59:26;;;;;;;3.20;2.90;;;;;;;18.99;22.85;100614.50;10304111;28;20602;-56
2021/05/03 11:04:29;;;;;;;4.57;3.38;;;;;;;19.36;22.96;100606.84;10303652;28;20463;-57
2021/05/03 11:09:31;;;;;;;5.10;3.50;;;;;;;18.92;24.48;100604.56;10302557;28;21111;-56
2021/05/03 11:15:10;;;;;;;3.50;2.93;;;;;;;19.28;23.67;100593.38;10304450;28;20391;-56
2021/05/03 11:20:15;;;;;;;3.50;2.65;;;;;;;19.84;21.99;100579.88;10304293;28;20061;-58
2021/05/03 11:25:26;;;;;;;4.00;2.63;;;;;;;19.82;23.15;100569.25;10306644;28;20054;-56
2021/05/03 11:30:42;;;;;;;7.88;3.25;;;;;;;20.10;21.99;100553.38;10299706;28;20520;-56
2021/05/03 11:46:44;;;;;;;2.60;2.30;;;;;;;20.35;22.62;100531.56;10312641;28;20073;-58
2021/05/03 11:51:50;;;;;;;4.13;2.70;;;;;;;20.24;21.96;100540.13;10301213;28;20045;-58
2021/05/03 11:56:59;;;;;;;3.60;2.83;;;;;;;19.96;22.47;100522.53;10305440;28;20046;-57
2021/05/03 12:02:05;;;;;;;3.50;2.22;;;;;;;19.56;21.01;100521.75;10300408;28;20068;-55
2021/05/03 12:07:24;;;;;;;3.90;2.40;;;;;;;18.62;22.99;100534.91;10309729;28;20121;-55
2021/05/03 12:12:49;;;;;;;2.40;2.20;;;;;;;18.59;23.71;100519.09;10298574;28;20062;-55
2021/05/03 12:17:50;;;;;;;4.05;2.42;;;;;;;19.14;23.62;100508.56;10297764;28;20503;-55
2021/05/03 12:22:55;;;;;;;4.60;2.38;;;;;;;19.01;23.44;100517.22;10300921;28;20073;-56
2021/05/03 12:27:56;;;;;;;3.38;3.08;;;;;;;18.38;24.92;100506.94;10302196;28;20074;-57
2021/05/03 12:32:57;;;;;;;3.15;2.72;;;;;;;18.19;25.44;100507.28;10300629;28;20598;-56
2021/05/03 12:37:58;;;;;;;3.72;2.67;;;;;;;17.73;25.51;100493.38;10302158;28;20058;-56
2021/05/03 12:43:04;;;;;;;3.45;3.15;;;;;;;17.54;26.71;100491.81;10294687;28;20054;-56
2021/05/03 12:58:28;;;;;;;2.75;2.53;;;;;;;17.33;27.03;100462.66;10309293;28;20077;-56
2021/05/03 13:25:36;;;;;;;3.22;3.00;;;;;;;16.83;28.16;100423.88;10304994;28;20062;-56
2021/05/03 13:30:38;;;;;;;3.25;2.75;;;;;;;16.52;28.11;100427.91;10306682;28;20053;-55
2021/05/03 13:35:39;;;;;;;2.60;2.35;;;;;;;16.22;28.75;100416.63;10309336;28;20068;-57
2021/05/03 13:40:41;;;;;;;2.95;2.58;;;;;;;16.91;28.19;100395.22;10299002;28;20092;-55
2021/05/03 13:45:42;;;;;;;4.03;2.10;;;;;;;17.31;26.96;100385.63;10304143;28;22015;-55
2021/05/03 13:50:43;;;;;;;2.88;2.03;;;;;;;17.18;25.94;100396.00;10308340;28;20054;-56
2021/05/03 13:55:44;;;;;;;3.05;2.30;;;;;;;16.86;26.77;100386.78;10308068;28;20144;-56
2021/05/03 14:00:45;;;;;;;2.70;2.22;;;;;;;16.44;26.75;100382.19;10304075;28;20416;-57
2021/05/03 14:05:46;;;;;;;4.13;2.50;;;;;;;16.02;27.08;100366.81;10300876;28;21303;-55
2021/05/03 14:10:47;;;;;;;2.80;1.88;;;;;;;16.42;27.09;100366.25;10299855;28;20131;-56
2021/05/03 14:15:50;;;;;;;4.45;2.75;;;;;;;16.80;27.30;100365.94;10302278;28;20050;-57
2021/05/03 14:20:52;;;;;;;4.88;2.53;;;;;;;16.49;27.35;100317.25;10302347;28;20131;-57
2021/05/03 14:25:53;;;;;;;3.47;2.50;;;;;;;16.86;26.78;100359.91;10296106;28;20259;-57
2021/05/03 14:31:04;;;;;;;3.25;2.58;;;;;;;16.79;27.10;100340.03;10303218;28;20081;-55
2021/05/03 14:36:08;;;;;;;3.20;2.90;;;;;;;16.57;27.50;100334.25;10305660;28;20046;-57
2021/05/03 14:41:10;;;;;;;3.53;2.70;;;;;;;16.68;27.56;100316.13;10306886;28;20042;-56
2021/05/03 14:46:15;;;;;;;3.65;2.42;;;;;;;16.66;27.01;100326.22;10303908;28;20112;-58
2021/05/03 14:56:20;;;;;;;3.30;3.00;;;;;;;16.43;27.32;100322.25;10299735;28;20054;-55
2021/05/03 15:01:21;;;;;;;3.33;2.63;;;;;;;16.37;27.36;100316.66;10299881;28;20085;-58
2021/05/03 15:06:23;;;;;;;3.00;2.50;;;;;;;16.43;26.85;100299.91;10305358;28;20422;-57
2021/05/03 15:11:25;;;;;;;4.72;2.15;;;;;;;16.47;26.96;100295.91;10300085;28;20157;-57
2021/05/03 15:17:10;;;;;;;3.25;2.90;;;;;;;16.75;27.14;100295.66;10300669;28;20050;-56
2021/05/03 15:21:53;;;;;;;3.53;2.60;;;;;;;16.47;27.16;100287.84;10304571;28;20647;-54
2021/05/03 15:26:56;;;;;;;2.58;2.38;;;;;;;16.15;27.80;100280.44;10307729;28;20057;-55
2021/05/03 15:37:10;;;;;;;2.67;2.47;;;;;;;16.04;28.14;100284.25;10304093;28;20086;-55
2021/05/03 15:42:13;;;;;;;2.88;2.20;;;;;;;15.93;28.24;100274.63;10307024;28;20049;-56
2021/05/03 15:47:14;;;;;;;2.83;2.28;;;;;;;15.64;28.25;100261.47;10303005;28;20064;-55
2021/05/03 15:52:15;;;;;;;2.17;1.98;;;;;;;15.72;28.59;100259.69;10295773;28;20053;-55
2021/05/03 15:57:16;;;;;;;2.83;2.20;;;;;;;15.63;28.22;100249.06;10287489;28;21868;-55
2021/05/03 16:02:19;;;;;;;2.28;2.08;;;;;;;15.79;28.38;100256.41;10291327;28;20057;-56
2021/05/03 16:07:20;;;;;;;3.35;2.40;;;;;;;15.77;28.38;100234.22;10303678;28;20120;-56
2021/05/03 16:12:21;;;;;;;2.42;2.05;;;;;;;16.03;28.73;100245.84;10296061;28;20553;-56
2021/05/03 16:17:21;;;;;;;2.90;2.60;;;;;;;15.90;28.60;100224.78;10298074;28;20072;-55
2021/05/03 16:22:22;;;;;;;2.72;2.42;;;;;;;15.81;28.97;100204.25;10298409;28;20058;-56
2021/05/03 16:27:24;;;;;;;3.05;2.67;;;;;;;15.63;29.00;100201.59;10299955;28;20039;-55
2021/05/03 16:32:25;;;;;;;3.13;2.60;;;;;;;15.55;29.01;100202.41;10298136;28;20783;-55
2021/05/03 16:37:26;;;;;;;2.53;2.33;;;;;;;15.61;29.00;100208.13;10300210;28;20069;-59
2021/05/03 16:42:30;;;;;;;4.55;3.35;;;;;;;15.48;29.50;100193.28;10296213;28;20137;-56
2021/05/03 16:47:31;;;;;;;4.13;2.42;;;;;;;15.34;29.93;100180.44;10293118;28;20057;-55
2021/05/03 16:52:33;;;;;;;3.10;2.80;;;;;;;15.23;29.78;100178.00;10300994;28;20525;-55
2021/05/03 16:57:34;;;;;;;2.78;1.92;;;;;;;15.12;30.52;100157.66;10299991;28;20655;-61
2021/05/03 17:02:35;;;;;;;3.47;2.63;;;;;;;15.17;30.95;100183.00;10299175;28;21595;-57
2021/05/03 17:07:36;;;;;;;2.83;2.50;;;;;;;14.95;30.30;100181.66;10296977;28;20054;-57
2021/05/03 17:12:39;;;;;;;2.95;2.72;;;;;;;14.65;30.84;100150.69;10295240;28;20041;-56
2021/05/03 17:17:39;;;;;;;4.03;3.00;;;;;;;14.76;31.13;100153.16;10295757;28;20418;-56
2021/05/03 17:22:41;;;;;;;3.20;2.90;;;;;;;14.82;31.15;100146.34;10299921;28;20046;-58
2021/05/03 17:27:42;;;;;;;3.13;2.78;;;;;;;14.83;32.01;100151.56;10298397;28;20129;-59
2021/05/03 17:32:43;;;;;;;4.38;2.53;;;;;;;14.67;31.49;100116.56;10296816;28;20042;-61
2021/05/03 17:37:44;;;;;;;6.25;4.13;;;;;;;14.84;32.73;100139.81;10303964;28;20512;-60
2021/05/03 17:42:45;;;;;;;5.18;2.33;;;;;;;14.81;32.62;100134.78;10301925;28;20472;-59
2021/05/03 17:47:46;;;;;;;3.85;2.35;;;;;;;14.93;31.91;100124.66;10301725;28;20053;-60
2021/05/03 17:52:51;;;;;;;3.17;2.60;;;;;;;14.70;31.75;100091.28;10305183;28;20058;-59
2021/05/03 17:57:52;;;;;;;2.83;1.70;;;;;;;14.63;32.28;100113.34;10304531;28;20454;-58
2021/05/03 18:02:53;;;;;;;2.20;2.00;;;;;;;14.57;31.91;100113.09;10302043;28;20065;-59
2021/05/03 18:07:55;;;;;;;5.93;2.35;;;;;;;14.48;32.16;100109.50;10302277;28;20064;-59
2021/05/03 18:12:56;;;;;;;2.28;1.98;;;;;;;14.43;31.98;100107.28;10296087;28;20132;-58
2021/05/03 18:17:58;;;;;;;3.10;2.40;;;;;;;14.41;32.38;100109.28;10303352;28;20348;-61
2021/05/03 18:22:59;;;;;;;4.57;2.70;;;;;;;14.24;32.67;100083.31;10304195;28;20097;-60
2021/05/03 18:28:00;;;;;;;3.25;2.80;;;;;;;14.22;33.35;100085.31;10305386;28;20449;-58
2021/05/03 18:33:01;;;;;;;2.55;2.25;;;;;;;14.17;32.98;100095.63;10301882;28;20061;-59
2021/05/03 18:38:04;;;;;;;3.47;2.70;;;;;;;14.05;33.34;100071.75;10301882;28;20051;-58
2021/05/03 18:43:05;;;;;;;2.53;2.30;;;;;;;14.03;33.28;100084.41;10305897;28;20134;-60
2021/05/03 18:48:07;;;;;;;3.70;2.67;;;;;;;14.02;33.84;100074.72;10303434;28;20073;-59
2021/05/03 18:53:08;;;;;;;3.63;2.40;;;;;;;13.94;33.54;100061.25;10300544;28;20064;-56
2021/05/03 18:58:09;;;;;;;2.83;2.53;;;;;;;13.85;33.82;100059.47;10301042;28;20053;-58
2021/05/03 19:03:10;;;;;;;3.72;2.90;;;;;;;13.71;34.21;100055.47;10302002;28;20050;-55
2021/05/03 19:08:11;;;;;;;3.17;2.70;;;;;;;13.55;34.44;100048.06;10307190;28;20097;-58
2021/05/03 19:13:13;;;;;;;3.42;2.58;;;;;;;13.56;34.60;100039.06;10301197;28;20104;-56
2021/05/03 19:18:15;;;;;;;3.65;2.40;;;;;;;13.46;34.81;100032.94;10301322;28;20116;-58
2021/05/03 19:23:16;;;;;;;3.47;2.78;;;;;;;13.48;35.32;100030.94;10295473;28;20062;-56
2021/05/03 19:28:18;;;;;;;4.20;3.47;;;;;;;13.43;36.10;100029.53;10302993;28;20050;-56
2021/05/03 19:33:18;;;;;;;4.35;3.33;;;;;;;13.40;35.77;100027.16;10302021;28;20107;-62
2021/05/03 19:38:21;;;;;;;3.22;2.88;;;;;;;13.20;36.16;100022.88;10297891;28;20046;-57
2021/05/03 19:43:22;;;;;;;4.03;3.00;;;;;;;13.16;36.42;100022.28;10296313;28;20842;-56
2021/05/03 19:48:25;;;;;;;4.97;3.53;;;;;;;13.00;36.59;100006.91;10302405;28;20152;-55
2021/05/03 20:03:52;;;;;;;3.97;3.58;;;;;;;12.86;37.28;99999.34;10295569;28;20047;-59
2021/05/03 20:08:53;;;;;;;4.28;3.83;;;;;;;12.73;37.68;99994.31;10293638;28;20053;-56
2021/05/03 20:13:55;;;;;;;6.57;4.15;;;;;;;12.60;38.02;99993.78;10297238;28;20042;-58
2021/05/03 20:18:56;;;;;;;4.55;3.78;;;;;;;12.46;38.27;99990.56;10297975;28;20407;-56
2021/05/03 20:23:57;;;;;;;6.25;3.58;;;;;;;12.45;38.59;99985.38;10292471;28;20061;-57
2021/05/03 20:28:59;;;;;;;4.25;3.85;;;;;;;12.45;38.35;99982.69;10293222;28;20049;-59
2021/05/03 20:34:13;;;;;;;4.20;3.28;;;;;;;12.37;38.70;99970.06;10291025;28;20057;-58
2021/05/03 20:40:02;;;;;;;5.20;3.25;;;;;;;12.35;38.73;99975.50;10289953;28;20088;-57
2021/05/03 20:44:47;;;;;;;3.30;3.00;;;;;;;12.17;39.20;99961.22;10297955;28;20049;-59
2021/05/03 20:49:48;;;;;;;3.22;2.50;;;;;;;12.15;38.44;99963.19;10303663;28;20515;-55
2021/05/03 20:54:49;;;;;;;2.47;2.28;;;;;;;12.09;38.69;99959.25;10316270;28;20546;-58
2021/05/03 20:59:50;;;;;;;4.78;2.40;;;;;;;12.06;38.57;99943.53;10336583;28;20057;-59
2021/05/03 21:04:52;;;;;;;3.53;2.35;;;;;;;12.11;38.79;99935.94;10325614;28;20056;-62
2021/05/03 21:09:53;;;;;;;2.60;1.98;;;;;;;12.14;38.51;99932.97;10338477;28;20054;-58
2021/05/03 21:14:54;;;;;;;2.65;1.90;;;;;;;12.13;38.65;99927.78;10348031;28;20061;-61
2021/05/03 21:19:54;;;;;;;2.65;2.40;;;;;;;11.97;38.59;99901.69;10347391;28;20078;-58
2021/05/03 21:24:55;;;;;;;2.45;2.25;;;;;;;12.09;38.67;99907.72;10345251;28;20054;-55
2021/05/03 21:29:57;;;;;;;3.45;2.55;;;;;;;11.88;38.25;99852.66;10347634;28;20050;-56
2021/05/03 21:34:58;;;;;;;3.53;2.58;;;;;;;12.01;38.88;99897.78;10347874;28;20050;-55
2021/05/03 21:39:59;;;;;;;3.30;2.97;;;;;;;11.98;39.24;99879.34;10339596;28;20104;-56
2021/05/03 21:45:00;;;;;;;3.97;3.58;;;;;;;12.00;38.96;99880.91;10347823;28;20054;-58
2021/05/03 21:50:03;;;;;;;3.58;3.28;;;;;;;11.97;39.35;99864.34;10342632;28;20062;-55
2021/05/03 21:55:05;;;;;;;4.13;3.67;;;;;;;12.04;39.20;99865.47;10345339;28;20081;-54
2021/05/03 22:00:09;;;;;;;4.00;3.55;;;;;;;12.05;39.62;99858.31;10344208;28;20046;-56
2021/05/03 22:05:11;;;;;;;3.45;3.15;;;;;;;12.09;39.55;99838.38;10343041;28;21416;-56
2021/05/03 22:10:12;;;;;;;4.45;4.05;;;;;;;12.14;39.86;99823.59;10346994;28;20642;-59
2021/05/03 22:15:13;;;;;;;4.60;3.80;;;;;;;11.93;40.08;99814.94;10347945;28;20455;-55
2021/05/03 22:20:28;;;;;;;5.30;3.80;;;;;;;11.95;40.19;99812.97;10347291;28;20084;-59
2021/05/03 22:25:56;;;;;;;4.40;4.00;;;;;;;11.91;40.45;99809.72;10344968;28;20700;-58
2021/05/03 22:30:53;;;;;;;4.13;3.78;;;;;;;11.87;40.47;99792.31;10341036;28;20068;-56
2021/05/03 22:36:03;;;;;;;4.32;3.92;;;;;;;11.78;40.75;99782.50;10343326;28;20053;-58
2021/05/03 23:09:29;;;;;;;4.30;3.90;;;;;;;11.57;41.03;99722.19;10341048;28;20541;-55
2021/05/03 23:17:50;;;;;;;5.05;4.30;;;;;;;11.36;41.52;99684.22;10344822;28;20503;-55
2021/05/03 23:22:51;;;;;;;5.47;4.10;;;;;;;11.48;41.73;99688.41;10336489;28;20049;-57
2021/05/03 23:27:52;;;;;;;5.15;4.53;;;;;;;11.47;41.82;99673.41;10344690;28;20061;-57
2021/05/03 23:32:53;;;;;;;6.68;3.92;;;;;;;11.36;41.73;99650.41;10343937;28;20046;-59
2021/05/03 23:37:54;;;;;;;5.95;4.13;;;;;;;11.50;41.74;99659.81;10343924;28;20058;-55
2021/05/03 23:42:55;;;;;;;6.07;3.95;;;;;;;11.44;42.11;99655.88;10344646;28;20050;-58
2021/05/03 23:47:56;;;;;;;4.20;3.80;;;;;;;11.32;42.25;99636.56;10344223;28;20053;-58
2021/05/03 23:52:57;;;;;;;4.82;4.15;;;;;;;11.29;42.56;99625.34;10344551;28;20053;-58
2021/05/03 23:57:58;;;;;;;4.03;3.60;;;;;;;11.29;42.35;99615.53;10344314;28;20458;-60
